sensor_id;sensor_type;location;lat;lon;timestamp;P1;durP1;ratioP1;P2;durP2;ratioP2
37907;SDS011;23740;51.550;6.846;2023-05-10T00:00:12;29.42;;;24.55;;
37907;SDS011;23740;51.550;6.846;2023-05-10T00:02:41;34.22;;;25.50;;
37907;SDS011;23740;51.550;6.846;2023-05-10T00:05:08;39.90;;;25.25;;
37907;SDS011;23740;51.550;6.846;2023-05-10T00:07:36;27.20;;;23.45;;
37907;SDS011;23740;51.550;6.846;2023-05-10T00:10:04;34.20;;;24.30;;
37907;SDS011;23740;51.550;6.846;2023-05-10T00:12:32;26.95;;;24.02;;
37907;SDS011;23740;51.550;6.846;2023-05-10T00:15:00;23.80;;;21.48;;
37907;SDS011;23740;51.550;6.846;2023-05-10T00:17:30;25.13;;;22.53;;
37907;SDS011;23740;51.550;6.846;2023-05-10T00:19:58;24.40;;;22.17;;
37907;SDS011;23740;51.550;6.846;2023-05-10T00:22:26;24.80;;;22.37;;
37907;SDS011;23740;51.550;6.846;2023-05-10T00:24:54;24.23;;;21.95;;
37907;SDS011;23740;51.550;6.846;2023-05-10T00:27:22;23.90;;;21.80;;
37907;SDS011;23740;51.550;6.846;2023-05-10T00:29:50;25.80;;;22.95;;
37907;SDS011;23740;51.550;6.846;2023-05-10T00:32:17;26.55;;;22.42;;
37907;SDS011;23740;51.550;6.846;2023-05-10T00:34:47;26.40;;;23.70;;
37907;SDS011;23740;51.550;6.846;2023-05-10T00:37:14;25.02;;;22.70;;
37907;SDS011;23740;51.550;6.846;2023-05-10T00:39:42;24.95;;;22.60;;
37907;SDS011;23740;51.550;6.846;2023-05-10T00:42:10;27.63;;;23.23;;
37907;SDS011;23740;51.550;6.846;2023-05-10T00:44:38;24.38;;;22.17;;
37907;SDS011;23740;51.550;6.846;2023-05-10T00:47:05;26.92;;;23.67;;
37907;SDS011;23740;51.550;6.846;2023-05-10T00:49:34;24.08;;;21.88;;
37907;SDS011;23740;51.550;6.846;2023-05-10T00:52:03;26.53;;;23.67;;
37907;SDS011;23740;51.550;6.846;2023-05-10T00:54:31;26.40;;;23.90;;
37907;SDS011;23740;51.550;6.846;2023-05-10T00:56:59;32.47;;;24.35;;
37907;SDS011;23740;51.550;6.846;2023-05-10T00:59:27;26.33;;;23.83;;
37907;SDS011;23740;51.550;6.846;2023-05-10T01:01:56;28.17;;;24.33;;
37907;SDS011;23740;51.550;6.846;2023-05-10T01:04:24;26.92;;;24.20;;
37907;SDS011;23740;51.550;6.846;2023-05-10T01:06:52;28.20;;;25.33;;
37907;SDS011;23740;51.550;6.846;2023-05-10T01:13:16;34.65;;;25.55;;
37907;SDS011;23740;51.550;6.846;2023-05-10T01:15:51;39.70;;;26.77;;
37907;SDS011;23740;51.550;6.846;2023-05-10T01:18:19;31.27;;;25.73;;
37907;SDS011;23740;51.550;6.846;2023-05-10T01:20:48;38.30;;;26.95;;
37907;SDS011;23740;51.550;6.846;2023-05-10T01:29:05;30.02;;;24.48;;
37907;SDS011;23740;51.550;6.846;2023-05-10T01:31:58;28.60;;;25.52;;
37907;SDS011;23740;51.550;6.846;2023-05-10T01:34:33;34.80;;;24.60;;
37907;SDS011;23740;51.550;6.846;2023-05-10T01:37:05;32.40;;;26.17;;
37907;SDS011;23740;51.550;6.846;2023-05-10T01:39:36;32.70;;;26.33;;
37907;SDS011;23740;51.550;6.846;2023-05-10T01:42:10;32.60;;;24.65;;
37907;SDS011;23740;51.550;6.846;2023-05-10T01:44:39;30.65;;;24.75;;
37907;SDS011;23740;51.550;6.846;2023-05-10T01:47:12;32.38;;;25.25;;
37907;SDS011;23740;51.550;6.846;2023-05-10T01:49:43;50.17;;;27.10;;
37907;SDS011;23740;51.550;6.846;2023-05-10T01:52:14;39.40;;;25.42;;
37907;SDS011;23740;51.550;6.846;2023-05-10T01:54:48;52.25;;;27.40;;
37907;SDS011;23740;51.550;6.846;2023-05-10T01:57:17;30.65;;;26.13;;
37907;SDS011;23740;51.550;6.846;2023-05-10T01:59:47;50.63;;;27.17;;
37907;SDS011;23740;51.550;6.846;2023-05-10T02:02:18;45.35;;;26.48;;
37907;SDS011;23740;51.550;6.846;2023-05-10T02:04:47;27.48;;;24.58;;
37907;SDS011;23740;51.550;6.846;2023-05-10T02:09:44;46.08;;;26.40;;
37907;SDS011;23740;51.550;6.846;2023-05-10T02:12:14;37.63;;;25.60;;
37907;SDS011;23740;51.550;6.846;2023-05-10T02:14:42;44.28;;;25.98;;
37907;SDS011;23740;51.550;6.846;2023-05-10T02:17:11;28.30;;;24.67;;
37907;SDS011;23740;51.550;6.846;2023-05-10T02:19:41;52.10;;;27.10;;
37907;SDS011;23740;51.550;6.846;2023-05-10T02:22:09;44.92;;;25.73;;
37907;SDS011;23740;51.550;6.846;2023-05-10T02:24:37;32.13;;;25.15;;
37907;SDS011;23740;51.550;6.846;2023-05-10T02:27:06;35.67;;;25.08;;
37907;SDS011;23740;51.550;6.846;2023-05-10T02:29:35;44.22;;;26.52;;
37907;SDS011;23740;51.550;6.846;2023-05-10T02:32:04;35.42;;;25.50;;
37907;SDS011;23740;51.550;6.846;2023-05-10T02:34:32;29.20;;;25.67;;
37907;SDS011;23740;51.550;6.846;2023-05-10T02:37:01;31.40;;;26.23;;
37907;SDS011;23740;51.550;6.846;2023-05-10T02:39:30;33.70;;;26.33;;
37907;SDS011;23740;51.550;6.846;2023-05-10T02:44:26;50.38;;;26.38;;
37907;SDS011;23740;51.550;6.846;2023-05-10T02:46:55;55.25;;;26.77;;
37907;SDS011;23740;51.550;6.846;2023-05-10T02:49:23;41.33;;;26.83;;
37907;SDS011;23740;51.550;6.846;2023-05-10T02:51:51;56.03;;;27.90;;
37907;SDS011;23740;51.550;6.846;2023-05-10T02:54:32;92.95;;;30.30;;
37907;SDS011;23740;51.550;6.846;2023-05-10T02:57:01;49.55;;;27.92;;
37907;SDS011;23740;51.550;6.846;2023-05-10T02:59:31;38.30;;;27.67;;
37907;SDS011;23740;51.550;6.846;2023-05-10T03:01:59;42.38;;;27.02;;
37907;SDS011;23740;51.550;6.846;2023-05-10T03:04:28;36.20;;;26.52;;
37907;SDS011;23740;51.550;6.846;2023-05-10T03:06:56;51.20;;;28.08;;
37907;SDS011;23740;51.550;6.846;2023-05-10T03:09:25;40.22;;;27.58;;
37907;SDS011;23740;51.550;6.846;2023-05-10T03:11:55;38.38;;;27.15;;
37907;SDS011;23740;51.550;6.846;2023-05-10T03:14:31;50.90;;;27.95;;
37907;SDS011;23740;51.550;6.846;2023-05-10T03:17:06;33.30;;;26.27;;
37907;SDS011;23740;51.550;6.846;2023-05-10T03:19:39;44.20;;;26.65;;
37907;SDS011;23740;51.550;6.846;2023-05-10T03:22:11;43.55;;;26.98;;
37907;SDS011;23740;51.550;6.846;2023-05-10T03:24:41;34.80;;;27.92;;
37907;SDS011;23740;51.550;6.846;2023-05-10T03:29:37;37.95;;;27.17;;
37907;SDS011;23740;51.550;6.846;2023-05-10T03:32:05;41.25;;;26.48;;
37907;SDS011;23740;51.550;6.846;2023-05-10T03:34:33;49.15;;;27.70;;
37907;SDS011;23740;51.550;6.846;2023-05-10T03:37:02;82.95;;;30.40;;
37907;SDS011;23740;51.550;6.846;2023-05-10T03:39:30;40.95;;;27.27;;
37907;SDS011;23740;51.550;6.846;2023-05-10T03:41:59;48.00;;;28.33;;
37907;SDS011;23740;51.550;6.846;2023-05-10T03:46:54;37.88;;;26.77;;
37907;SDS011;23740;51.550;6.846;2023-05-10T03:49:23;66.85;;;29.13;;
37907;SDS011;23740;51.550;6.846;2023-05-10T03:51:51;39.97;;;28.20;;
37907;SDS011;23740;51.550;6.846;2023-05-10T03:54:18;45.63;;;29.20;;
37907;SDS011;23740;51.550;6.846;2023-05-10T03:56:46;46.10;;;29.92;;
37907;SDS011;23740;51.550;6.846;2023-05-10T03:59:16;44.55;;;28.42;;
37907;SDS011;23740;51.550;6.846;2023-05-10T04:04:11;48.40;;;30.30;;
37907;SDS011;23740;51.550;6.846;2023-05-10T04:06:39;44.30;;;29.85;;
37907;SDS011;23740;51.550;6.846;2023-05-10T04:09:07;45.92;;;30.05;;
37907;SDS011;23740;51.550;6.846;2023-05-10T04:11:35;59.57;;;30.67;;
37907;SDS011;23740;51.550;6.846;2023-05-10T04:14:03;54.10;;;30.90;;
37907;SDS011;23740;51.550;6.846;2023-05-10T04:16:32;49.38;;;30.65;;
37907;SDS011;23740;51.550;6.846;2023-05-10T04:19:00;51.45;;;31.33;;
37907;SDS011;23740;51.550;6.846;2023-05-10T04:21:27;50.53;;;29.40;;
37907;SDS011;23740;51.550;6.846;2023-05-10T04:23:55;49.63;;;31.00;;
37907;SDS011;23740;51.550;6.846;2023-05-10T04:26:23;43.05;;;30.13;;
37907;SDS011;23740;51.550;6.846;2023-05-10T04:28:51;48.20;;;31.10;;
37907;SDS011;23740;51.550;6.846;2023-05-10T04:31:19;82.88;;;32.35;;
37907;SDS011;23740;51.550;6.846;2023-05-10T04:33:48;50.28;;;30.17;;
37907;SDS011;23740;51.550;6.846;2023-05-10T04:36:16;50.65;;;31.35;;
37907;SDS011;23740;51.550;6.846;2023-05-10T04:38:43;47.25;;;30.38;;
37907;SDS011;23740;51.550;6.846;2023-05-10T04:41:11;56.17;;;31.80;;
37907;SDS011;23740;51.550;6.846;2023-05-10T04:43:39;45.90;;;30.02;;
37907;SDS011;23740;51.550;6.846;2023-05-10T04:46:07;44.78;;;30.92;;
37907;SDS011;23740;51.550;6.846;2023-05-10T04:48:35;64.75;;;32.20;;
37907;SDS011;23740;51.550;6.846;2023-05-10T04:51:04;44.05;;;30.70;;
37907;SDS011;23740;51.550;6.846;2023-05-10T04:53:32;83.88;;;33.60;;
37907;SDS011;23740;51.550;6.846;2023-05-10T04:56:00;56.83;;;31.70;;
37907;SDS011;23740;51.550;6.846;2023-05-10T04:58:28;47.65;;;32.13;;
37907;SDS011;23740;51.550;6.846;2023-05-10T05:00:56;49.42;;;31.50;;
37907;SDS011;23740;51.550;6.846;2023-05-10T05:03:23;54.70;;;32.75;;
37907;SDS011;23740;51.550;6.846;2023-05-10T05:05:51;54.45;;;34.60;;
37907;SDS011;23740;51.550;6.846;2023-05-10T05:08:20;62.80;;;34.53;;
37907;SDS011;23740;51.550;6.846;2023-05-10T05:10:49;48.13;;;31.88;;
37907;SDS011;23740;51.550;6.846;2023-05-10T05:13:16;63.15;;;34.88;;
37907;SDS011;23740;51.550;6.846;2023-05-10T05:15:44;54.38;;;33.83;;
37907;SDS011;23740;51.550;6.846;2023-05-10T05:18:12;49.53;;;33.28;;
37907;SDS011;23740;51.550;6.846;2023-05-10T05:20:40;60.22;;;34.13;;
37907;SDS011;23740;51.550;6.846;2023-05-10T05:23:08;43.63;;;33.70;;
37907;SDS011;23740;51.550;6.846;2023-05-10T05:25:37;48.47;;;33.20;;
37907;SDS011;23740;51.550;6.846;2023-05-10T05:30:32;50.65;;;34.75;;
37907;SDS011;23740;51.550;6.846;2023-05-10T05:33:00;43.63;;;32.75;;
37907;SDS011;23740;51.550;6.846;2023-05-10T05:35:29;49.25;;;34.75;;
37907;SDS011;23740;51.550;6.846;2023-05-10T05:37:57;48.25;;;35.17;;
37907;SDS011;23740;51.550;6.846;2023-05-10T05:40:25;52.08;;;35.67;;
37907;SDS011;23740;51.550;6.846;2023-05-10T05:42:54;54.65;;;36.80;;
37907;SDS011;23740;51.550;6.846;2023-05-10T05:47:49;44.83;;;36.00;;
37907;SDS011;23740;51.550;6.846;2023-05-10T05:50:17;48.95;;;35.90;;
37907;SDS011;23740;51.550;6.846;2023-05-10T05:52:45;45.65;;;36.42;;
37907;SDS011;23740;51.550;6.846;2023-05-10T05:55:13;48.67;;;35.78;;
37907;SDS011;23740;51.550;6.846;2023-05-10T05:57:41;48.20;;;36.90;;
37907;SDS011;23740;51.550;6.846;2023-05-10T06:00:11;47.30;;;35.65;;
37907;SDS011;23740;51.550;6.846;2023-05-10T06:02:40;42.17;;;34.20;;
37907;SDS011;23740;51.550;6.846;2023-05-10T06:05:10;44.28;;;34.38;;
37907;SDS011;23740;51.550;6.846;2023-05-10T06:07:40;39.25;;;33.92;;
37907;SDS011;23740;51.550;6.846;2023-05-10T06:10:09;48.58;;;35.53;;
37907;SDS011;23740;51.550;6.846;2023-05-10T06:12:37;44.80;;;35.92;;
37907;SDS011;23740;51.550;6.846;2023-05-10T06:15:05;42.70;;;34.40;;
37907;SDS011;23740;51.550;6.846;2023-05-10T06:17:34;44.88;;;36.15;;
37907;SDS011;23740;51.550;6.846;2023-05-10T06:20:02;46.47;;;36.35;;
37907;SDS011;23740;51.550;6.846;2023-05-10T06:22:31;47.53;;;39.38;;
37907;SDS011;23740;51.550;6.846;2023-05-10T06:24:58;43.95;;;36.85;;
37907;SDS011;23740;51.550;6.846;2023-05-10T06:27:26;43.17;;;36.80;;
37907;SDS011;23740;51.550;6.846;2023-05-10T06:29:54;43.42;;;36.25;;
37907;SDS011;23740;51.550;6.846;2023-05-10T06:32:39;40.63;;;34.97;;
37907;SDS011;23740;51.550;6.846;2023-05-10T06:35:07;41.58;;;35.40;;
37907;SDS011;23740;51.550;6.846;2023-05-10T06:37:35;43.00;;;36.60;;
37907;SDS011;23740;51.550;6.846;2023-05-10T06:40:04;41.47;;;35.22;;
37907;SDS011;23740;51.550;6.846;2023-05-10T06:45:00;38.90;;;34.72;;
37907;SDS011;23740;51.550;6.846;2023-05-10T06:47:28;40.92;;;35.67;;
37907;SDS011;23740;51.550;6.846;2023-05-10T06:49:57;38.90;;;34.67;;
37907;SDS011;23740;51.550;6.846;2023-05-10T06:52:25;43.78;;;35.35;;
37907;SDS011;23740;51.550;6.846;2023-05-10T06:54:53;38.35;;;34.28;;
37907;SDS011;23740;51.550;6.846;2023-05-10T06:57:20;46.85;;;37.60;;
37907;SDS011;23740;51.550;6.846;2023-05-10T06:59:57;45.42;;;36.60;;
37907;SDS011;23740;51.550;6.846;2023-05-10T07:02:25;48.63;;;37.20;;
37907;SDS011;23740;51.550;6.846;2023-05-10T07:04:53;40.10;;;34.67;;
37907;SDS011;23740;51.550;6.846;2023-05-10T07:07:23;43.60;;;35.97;;
37907;SDS011;23740;51.550;6.846;2023-05-10T07:12:18;43.38;;;35.97;;
37907;SDS011;23740;51.550;6.846;2023-05-10T07:14:46;43.08;;;35.38;;
37907;SDS011;23740;51.550;6.846;2023-05-10T07:17:13;39.70;;;34.40;;
37907;SDS011;23740;51.550;6.846;2023-05-10T07:19:41;42.67;;;37.75;;
37907;SDS011;23740;51.550;6.846;2023-05-10T07:22:09;42.13;;;37.05;;
37907;SDS011;23740;51.550;6.846;2023-05-10T07:24:39;42.10;;;35.85;;
37907;SDS011;23740;51.550;6.846;2023-05-10T07:27:06;44.70;;;36.78;;
37907;SDS011;23740;51.550;6.846;2023-05-10T07:29:35;42.58;;;38.08;;
37907;SDS011;23740;51.550;6.846;2023-05-10T07:32:03;47.80;;;37.05;;
37907;SDS011;23740;51.550;6.846;2023-05-10T07:34:32;40.60;;;35.38;;
37907;SDS011;23740;51.550;6.846;2023-05-10T07:37:00;46.43;;;36.07;;
37907;SDS011;23740;51.550;6.846;2023-05-10T07:39:28;45.95;;;35.70;;
37907;SDS011;23740;51.550;6.846;2023-05-10T07:41:57;50.20;;;39.30;;
37907;SDS011;23740;51.550;6.846;2023-05-10T07:44:25;43.10;;;36.25;;
37907;SDS011;23740;51.550;6.846;2023-05-10T07:46:53;43.63;;;36.22;;
37907;SDS011;23740;51.550;6.846;2023-05-10T07:49:21;43.72;;;36.83;;
37907;SDS011;23740;51.550;6.846;2023-05-10T07:54:18;45.42;;;34.67;;
37907;SDS011;23740;51.550;6.846;2023-05-10T07:56:46;39.40;;;34.92;;
37907;SDS011;23740;51.550;6.846;2023-05-10T07:59:16;36.53;;;32.33;;
37907;SDS011;23740;51.550;6.846;2023-05-10T08:01:44;36.03;;;32.20;;
37907;SDS011;23740;51.550;6.846;2023-05-10T08:04:12;35.53;;;31.73;;
37907;SDS011;23740;51.550;6.846;2023-05-10T08:06:40;35.47;;;30.20;;
37907;SDS011;23740;51.550;6.846;2023-05-10T08:09:08;35.45;;;31.65;;
37907;SDS011;23740;51.550;6.846;2023-05-10T08:11:37;35.78;;;32.17;;
37907;SDS011;23740;51.550;6.846;2023-05-10T08:14:04;33.70;;;30.30;;
37907;SDS011;23740;51.550;6.846;2023-05-10T08:16:34;35.70;;;31.58;;
37907;SDS011;23740;51.550;6.846;2023-05-10T08:19:01;36.95;;;33.05;;
37907;SDS011;23740;51.550;6.846;2023-05-10T08:21:29;38.83;;;31.98;;
37907;SDS011;23740;51.550;6.846;2023-05-10T08:23:57;35.50;;;31.80;;
37907;SDS011;23740;51.550;6.846;2023-05-10T08:26:25;35.63;;;31.88;;
37907;SDS011;23740;51.550;6.846;2023-05-10T08:28:53;36.22;;;31.50;;
37907;SDS011;23740;51.550;6.846;2023-05-10T08:31:21;35.65;;;31.83;;
37907;SDS011;23740;51.550;6.846;2023-05-10T08:33:50;35.13;;;31.33;;
37907;SDS011;23740;51.550;6.846;2023-05-10T08:36:18;36.28;;;32.30;;
37907;SDS011;23740;51.550;6.846;2023-05-10T08:38:49;36.58;;;32.85;;
37907;SDS011;23740;51.550;6.846;2023-05-10T08:41:18;36.15;;;32.33;;
37907;SDS011;23740;51.550;6.846;2023-05-10T08:43:48;34.33;;;30.85;;
37907;SDS011;23740;51.550;6.846;2023-05-10T08:46:17;36.47;;;32.78;;
37907;SDS011;23740;51.550;6.846;2023-05-10T08:48:47;36.00;;;32.65;;
37907;SDS011;23740;51.550;6.846;2023-05-10T08:51:17;36.65;;;32.92;;
37907;SDS011;23740;51.550;6.846;2023-05-10T08:53:45;35.55;;;32.22;;
37907;SDS011;23740;51.550;6.846;2023-05-10T08:56:13;31.53;;;28.73;;
37907;SDS011;23740;51.550;6.846;2023-05-10T08:58:44;30.30;;;27.77;;
37907;SDS011;23740;51.550;6.846;2023-05-10T09:01:12;31.83;;;28.90;;
37907;SDS011;23740;51.550;6.846;2023-05-10T09:03:40;32.45;;;29.67;;
37907;SDS011;23740;51.550;6.846;2023-05-10T09:06:08;31.50;;;28.48;;
37907;SDS011;23740;51.550;6.846;2023-05-10T09:08:37;30.25;;;27.77;;
37907;SDS011;23740;51.550;6.846;2023-05-10T09:11:05;31.35;;;28.63;;
37907;SDS011;23740;51.550;6.846;2023-05-10T09:13:33;32.27;;;29.30;;
37907;SDS011;23740;51.550;6.846;2023-05-10T09:16:03;32.63;;;29.83;;
37907;SDS011;23740;51.550;6.846;2023-05-10T09:18:46;33.58;;;30.40;;
37907;SDS011;23740;51.550;6.846;2023-05-10T09:21:15;33.42;;;30.42;;
37907;SDS011;23740;51.550;6.846;2023-05-10T09:23:45;32.08;;;28.92;;
37907;SDS011;23740;51.550;6.846;2023-05-10T09:26:14;32.47;;;29.63;;
37907;SDS011;23740;51.550;6.846;2023-05-10T09:28:51;33.05;;;30.05;;
37907;SDS011;23740;51.550;6.846;2023-05-10T09:31:20;31.03;;;28.27;;
37907;SDS011;23740;51.550;6.846;2023-05-10T09:33:48;32.90;;;29.40;;
37907;SDS011;23740;51.550;6.846;2023-05-10T09:36:16;32.15;;;29.23;;
37907;SDS011;23740;51.550;6.846;2023-05-10T09:38:46;32.40;;;29.08;;
37907;SDS011;23740;51.550;6.846;2023-05-10T09:41:15;33.65;;;30.40;;
37907;SDS011;23740;51.550;6.846;2023-05-10T09:43:44;31.13;;;28.23;;
37907;SDS011;23740;51.550;6.846;2023-05-10T09:46:12;31.70;;;28.50;;
37907;SDS011;23740;51.550;6.846;2023-05-10T09:48:41;31.13;;;28.20;;
37907;SDS011;23740;51.550;6.846;2023-05-10T09:51:10;30.80;;;27.95;;
37907;SDS011;23740;51.550;6.846;2023-05-10T09:53:37;31.70;;;28.50;;
37907;SDS011;23740;51.550;6.846;2023-05-10T09:56:07;31.52;;;28.60;;
37907;SDS011;23740;51.550;6.846;2023-05-10T09:58:36;30.55;;;27.75;;
37907;SDS011;23740;51.550;6.846;2023-05-10T10:01:05;29.60;;;26.75;;
37907;SDS011;23740;51.550;6.846;2023-05-10T10:03:41;30.65;;;27.67;;
37907;SDS011;23740;51.550;6.846;2023-05-10T10:06:09;28.08;;;25.70;;
37907;SDS011;23740;51.550;6.846;2023-05-10T10:08:55;30.33;;;27.52;;
37907;SDS011;23740;51.550;6.846;2023-05-10T10:13:52;31.45;;;28.33;;
37907;SDS011;23740;51.550;6.846;2023-05-10T10:16:20;29.92;;;26.83;;
37907;SDS011;23740;51.550;6.846;2023-05-10T10:18:49;30.02;;;27.13;;
37907;SDS011;23740;51.550;6.846;2023-05-10T10:21:17;30.63;;;27.53;;
37907;SDS011;23740;51.550;6.846;2023-05-10T10:23:45;30.90;;;27.95;;
37907;SDS011;23740;51.550;6.846;2023-05-10T10:26:13;31.27;;;28.10;;
37907;SDS011;23740;51.550;6.846;2023-05-10T10:28:45;29.70;;;26.98;;
37907;SDS011;23740;51.550;6.846;2023-05-10T10:31:20;31.25;;;28.23;;
37907;SDS011;23740;51.550;6.846;2023-05-10T10:33:59;30.52;;;27.58;;
37907;SDS011;23740;51.550;6.846;2023-05-10T10:36:28;30.70;;;27.77;;
37907;SDS011;23740;51.550;6.846;2023-05-10T10:38:57;28.50;;;25.90;;
37907;SDS011;23740;51.550;6.846;2023-05-10T10:41:30;29.83;;;26.40;;
37907;SDS011;23740;51.550;6.846;2023-05-10T10:46:58;29.80;;;26.88;;
37907;SDS011;23740;51.550;6.846;2023-05-10T10:49:27;28.80;;;26.23;;
37907;SDS011;23740;51.550;6.846;2023-05-10T10:54:52;29.40;;;26.75;;
37907;SDS011;23740;51.550;6.846;2023-05-10T10:57:21;29.10;;;26.33;;
37907;SDS011;23740;51.550;6.846;2023-05-10T10:59:50;28.25;;;25.75;;
37907;SDS011;23740;51.550;6.846;2023-05-10T11:02:34;28.77;;;26.00;;
37907;SDS011;23740;51.550;6.846;2023-05-10T11:05:22;29.52;;;26.67;;
37907;SDS011;23740;51.550;6.846;2023-05-10T11:08:15;32.60;;;27.85;;
37907;SDS011;23740;51.550;6.846;2023-05-10T11:10:51;30.33;;;27.45;;
37907;SDS011;23740;51.550;6.846;2023-05-10T11:13:34;31.45;;;28.17;;
37907;SDS011;23740;51.550;6.846;2023-05-10T11:16:11;29.45;;;26.63;;
37907;SDS011;23740;51.550;6.846;2023-05-10T11:18:40;30.02;;;27.33;;
37907;SDS011;23740;51.550;6.846;2023-05-10T11:21:08;30.03;;;27.03;;
37907;SDS011;23740;51.550;6.846;2023-05-10T11:23:49;31.83;;;28.85;;
37907;SDS011;23740;51.550;6.846;2023-05-10T11:26:18;31.48;;;28.58;;
37907;SDS011;23740;51.550;6.846;2023-05-10T11:28:49;31.10;;;28.17;;
37907;SDS011;23740;51.550;6.846;2023-05-10T11:31:19;31.97;;;28.73;;
37907;SDS011;23740;51.550;6.846;2023-05-10T11:33:48;30.83;;;28.13;;
37907;SDS011;23740;51.550;6.846;2023-05-10T11:36:17;30.52;;;27.70;;
37907;SDS011;23740;51.550;6.846;2023-05-10T11:38:46;30.70;;;27.85;;
37907;SDS011;23740;51.550;6.846;2023-05-10T11:41:15;29.95;;;27.30;;
37907;SDS011;23740;51.550;6.846;2023-05-10T11:43:45;32.08;;;29.17;;
37907;SDS011;23740;51.550;6.846;2023-05-10T11:46:15;31.55;;;28.67;;
37907;SDS011;23740;51.550;6.846;2023-05-10T11:48:45;31.63;;;28.67;;
37907;SDS011;23740;51.550;6.846;2023-05-10T11:51:12;32.13;;;29.10;;
37907;SDS011;23740;51.550;6.846;2023-05-10T11:53:41;31.70;;;28.73;;
37907;SDS011;23740;51.550;6.846;2023-05-10T11:56:09;29.63;;;26.92;;
37907;SDS011;23740;51.550;6.846;2023-05-10T11:58:38;30.38;;;27.83;;
37907;SDS011;23740;51.550;6.846;2023-05-10T12:01:06;28.25;;;25.75;;
37907;SDS011;23740;51.550;6.846;2023-05-10T12:03:35;28.45;;;26.15;;
37907;SDS011;23740;51.550;6.846;2023-05-10T12:06:05;28.88;;;26.35;;
37907;SDS011;23740;51.550;6.846;2023-05-10T12:08:34;27.10;;;25.00;;
37907;SDS011;23740;51.550;6.846;2023-05-10T12:11:05;27.23;;;25.13;;
37907;SDS011;23740;51.550;6.846;2023-05-10T12:13:37;27.92;;;25.40;;
37907;SDS011;23740;51.550;6.846;2023-05-10T12:16:12;27.50;;;25.38;;
37907;SDS011;23740;51.550;6.846;2023-05-10T12:18:40;26.65;;;24.63;;
37907;SDS011;23740;51.550;6.846;2023-05-10T12:21:10;26.10;;;24.05;;
37907;SDS011;23740;51.550;6.846;2023-05-10T12:23:39;26.38;;;23.92;;
37907;SDS011;23740;51.550;6.846;2023-05-10T12:26:08;25.85;;;23.88;;
37907;SDS011;23740;51.550;6.846;2023-05-10T12:28:37;27.95;;;25.60;;
37907;SDS011;23740;51.550;6.846;2023-05-10T12:31:05;25.77;;;23.90;;
37907;SDS011;23740;51.550;6.846;2023-05-10T12:33:37;25.73;;;23.73;;
37907;SDS011;23740;51.550;6.846;2023-05-10T12:36:08;26.27;;;24.05;;
37907;SDS011;23740;51.550;6.846;2023-05-10T12:41:10;24.25;;;22.48;;
37907;SDS011;23740;51.550;6.846;2023-05-10T12:43:39;24.50;;;22.67;;
37907;SDS011;23740;51.550;6.846;2023-05-10T12:46:07;23.13;;;21.35;;
37907;SDS011;23740;51.550;6.846;2023-05-10T12:48:36;23.10;;;21.52;;
37907;SDS011;23740;51.550;6.846;2023-05-10T12:51:05;23.25;;;21.40;;
37907;SDS011;23740;51.550;6.846;2023-05-10T12:53:35;22.83;;;21.02;;
37907;SDS011;23740;51.550;6.846;2023-05-10T12:56:05;23.50;;;21.75;;
37907;SDS011;23740;51.550;6.846;2023-05-10T12:58:33;21.88;;;20.38;;
37907;SDS011;23740;51.550;6.846;2023-05-10T13:01:01;22.48;;;20.95;;
37907;SDS011;23740;51.550;6.846;2023-05-10T13:03:31;22.77;;;21.10;;
37907;SDS011;23740;51.550;6.846;2023-05-10T13:05:59;23.50;;;21.77;;
37907;SDS011;23740;51.550;6.846;2023-05-10T13:08:26;22.30;;;20.73;;
37907;SDS011;23740;51.550;6.846;2023-05-10T13:10:59;22.85;;;21.25;;
37907;SDS011;23740;51.550;6.846;2023-05-10T13:13:29;23.88;;;21.92;;
37907;SDS011;23740;51.550;6.846;2023-05-10T13:15:57;22.58;;;20.98;;
37907;SDS011;23740;51.550;6.846;2023-05-10T13:18:24;22.73;;;21.23;;
37907;SDS011;23740;51.550;6.846;2023-05-10T13:20:53;22.20;;;20.70;;
37907;SDS011;23740;51.550;6.846;2023-05-10T13:23:22;23.23;;;21.50;;
37907;SDS011;23740;51.550;6.846;2023-05-10T13:25:49;22.05;;;20.67;;
37907;SDS011;23740;51.550;6.846;2023-05-10T13:28:17;21.88;;;20.48;;
37907;SDS011;23740;51.550;6.846;2023-05-10T13:30:46;22.08;;;20.73;;
37907;SDS011;23740;51.550;6.846;2023-05-10T13:33:14;20.75;;;19.55;;
37907;SDS011;23740;51.550;6.846;2023-05-10T13:35:42;23.08;;;21.55;;
37907;SDS011;23740;51.550;6.846;2023-05-10T13:38:10;22.45;;;20.95;;
37907;SDS011;23740;51.550;6.846;2023-05-10T13:40:38;22.07;;;20.47;;
37907;SDS011;23740;51.550;6.846;2023-05-10T13:43:05;21.70;;;20.30;;
37907;SDS011;23740;51.550;6.846;2023-05-10T13:45:33;21.45;;;19.95;;
37907;SDS011;23740;51.550;6.846;2023-05-10T13:48:03;21.92;;;20.38;;
37907;SDS011;23740;51.550;6.846;2023-05-10T13:50:32;22.23;;;20.48;;
37907;SDS011;23740;51.550;6.846;2023-05-10T13:53:00;21.93;;;20.43;;
37907;SDS011;23740;51.550;6.846;2023-05-10T13:55:27;22.33;;;20.58;;
37907;SDS011;23740;51.550;6.846;2023-05-10T13:57:56;22.92;;;21.23;;
37907;SDS011;23740;51.550;6.846;2023-05-10T14:00:24;22.27;;;20.88;;
37907;SDS011;23740;51.550;6.846;2023-05-10T14:02:53;22.63;;;21.13;;
37907;SDS011;23740;51.550;6.846;2023-05-10T14:05:22;22.83;;;21.23;;
37907;SDS011;23740;51.550;6.846;2023-05-10T14:07:52;22.75;;;21.15;;
37907;SDS011;23740;51.550;6.846;2023-05-10T14:10:20;21.48;;;20.17;;
37907;SDS011;23740;51.550;6.846;2023-05-10T14:12:47;21.80;;;20.38;;
37907;SDS011;23740;51.550;6.846;2023-05-10T14:15:15;21.17;;;19.77;;
37907;SDS011;23740;51.550;6.846;2023-05-10T14:17:43;22.02;;;20.58;;
37907;SDS011;23740;51.550;6.846;2023-05-10T14:20:11;22.40;;;20.58;;
37907;SDS011;23740;51.550;6.846;2023-05-10T14:22:40;21.90;;;20.50;;
37907;SDS011;23740;51.550;6.846;2023-05-10T14:25:08;21.17;;;19.77;;
37907;SDS011;23740;51.550;6.846;2023-05-10T14:27:36;20.50;;;19.13;;
37907;SDS011;23740;51.550;6.846;2023-05-10T14:30:04;22.20;;;20.80;;
37907;SDS011;23740;51.550;6.846;2023-05-10T14:32:33;21.30;;;19.90;;
37907;SDS011;23740;51.550;6.846;2023-05-10T14:35:03;21.30;;;19.80;;
37907;SDS011;23740;51.550;6.846;2023-05-10T14:37:32;21.80;;;20.40;;
37907;SDS011;23740;51.550;6.846;2023-05-10T14:40:01;20.45;;;19.15;;
37907;SDS011;23740;51.550;6.846;2023-05-10T14:42:30;21.40;;;19.90;;
37907;SDS011;23740;51.550;6.846;2023-05-10T14:44:58;21.47;;;20.07;;
37907;SDS011;23740;51.550;6.846;2023-05-10T14:47:26;21.23;;;19.83;;
37907;SDS011;23740;51.550;6.846;2023-05-10T14:49:54;20.37;;;19.03;;
37907;SDS011;23740;51.550;6.846;2023-05-10T14:52:21;20.40;;;19.10;;
37907;SDS011;23740;51.550;6.846;2023-05-10T14:54:49;19.97;;;18.67;;
37907;SDS011;23740;51.550;6.846;2023-05-10T14:57:18;20.00;;;18.70;;
37907;SDS011;23740;51.550;6.846;2023-05-10T14:59:46;20.20;;;18.90;;
37907;SDS011;23740;51.550;6.846;2023-05-10T15:02:14;20.73;;;19.33;;
37907;SDS011;23740;51.550;6.846;2023-05-10T15:04:43;21.67;;;20.17;;
37907;SDS011;23740;51.550;6.846;2023-05-10T15:07:11;21.63;;;20.17;;
37907;SDS011;23740;51.550;6.846;2023-05-10T15:09:41;22.70;;;21.10;;
37907;SDS011;23740;51.550;6.846;2023-05-10T15:12:08;22.38;;;20.75;;
37907;SDS011;23740;51.550;6.846;2023-05-10T15:14:37;22.90;;;21.38;;
37907;SDS011;23740;51.550;6.846;2023-05-10T15:17:06;22.55;;;20.95;;